sensor_id;sensor_type;location;lat;lon;timestamp;P1;durP1;ratioP1;P2;durP2;ratioP2
29120;SDS011;16191;49.548;8.658;2022-09-24T00:01:27;4.13;;;3.00;;
29120;SDS011;16191;49.548;8.658;2022-09-24T00:03:57;11.20;;;3.37;;
29120;SDS011;16191;49.548;8.658;2022-09-24T00:06:26;9.50;;;3.05;;
29120;SDS011;16191;49.548;8.658;2022-09-24T00:08:55;8.52;;;4.15;;
29120;SDS011;16191;49.548;8.658;2022-09-24T00:11:23;10.93;;;3.20;;
29120;SDS011;16191;49.548;8.658;2022-09-24T00:13:51;7.43;;;3.25;;
29120;SDS011;16191;49.548;8.658;2022-09-24T00:16:19;8.85;;;3.60;;
29120;SDS011;16191;49.548;8.658;2022-09-24T00:18:47;4.05;;;3.00;;
29120;SDS011;16191;49.548;8.658;2022-09-24T00:21:18;7.00;;;2.92;;
29120;SDS011;16191;49.548;8.658;2022-09-24T00:23:50;9.57;;;3.40;;
29120;SDS011;16191;49.548;8.658;2022-09-24T00:26:19;4.68;;;3.08;;
29120;SDS011;16191;49.548;8.658;2022-09-24T00:29:05;6.40;;;3.55;;
29120;SDS011;16191;49.548;8.658;2022-09-24T00:31:33;5.25;;;3.45;;
29120;SDS011;16191;49.548;8.658;2022-09-24T00:33:59;7.43;;;3.08;;
29120;SDS011;16191;49.548;8.658;2022-09-24T00:36:27;5.00;;;2.60;;
29120;SDS011;16191;49.548;8.658;2022-09-24T00:38:55;9.68;;;2.90;;
29120;SDS011;16191;49.548;8.658;2022-09-24T00:41:27;5.22;;;3.10;;
29120;SDS011;16191;49.548;8.658;2022-09-24T00:43:55;7.55;;;2.78;;
29120;SDS011;16191;49.548;8.658;2022-09-24T00:46:27;9.48;;;2.63;;
29120;SDS011;16191;49.548;8.658;2022-09-24T00:49:19;7.78;;;2.95;;
29120;SDS011;16191;49.548;8.658;2022-09-24T00:52:06;4.65;;;2.50;;
29120;SDS011;16191;49.548;8.658;2022-09-24T00:54:53;8.18;;;3.22;;
29120;SDS011;16191;49.548;8.658;2022-09-24T00:57:40;7.55;;;2.78;;
29120;SDS011;16191;49.548;8.658;2022-09-24T01:00:27;8.95;;;3.15;;
29120;SDS011;16191;49.548;8.658;2022-09-24T01:03:16;10.65;;;3.28;;
29120;SDS011;16191;49.548;8.658;2022-09-24T01:05:46;5.32;;;2.78;;
29120;SDS011;16191;49.548;8.658;2022-09-24T01:08:13;6.40;;;2.40;;
29120;SDS011;16191;49.548;8.658;2022-09-24T01:16:25;4.63;;;2.67;;
29120;SDS011;16191;49.548;8.658;2022-09-24T01:19:05;3.95;;;2.40;;
29120;SDS011;16191;49.548;8.658;2022-09-24T01:21:45;4.85;;;2.65;;
29120;SDS011;16191;49.548;8.658;2022-09-24T01:30:05;7.22;;;2.80;;
29120;SDS011;16191;49.548;8.658;2022-09-24T01:32:35;4.85;;;2.80;;
29120;SDS011;16191;49.548;8.658;2022-09-24T01:35:18;7.55;;;2.78;;
29120;SDS011;16191;49.548;8.658;2022-09-24T01:37:56;5.30;;;2.85;;
29120;SDS011;16191;49.548;8.658;2022-09-24T01:40:27;5.10;;;2.80;;
29120;SDS011;16191;49.548;8.658;2022-09-24T01:42:56;4.43;;;2.70;;
29120;SDS011;16191;49.548;8.658;2022-09-24T01:45:25;7.32;;;2.80;;
29120;SDS011;16191;49.548;8.658;2022-09-24T01:47:55;11.32;;;2.65;;
29120;SDS011;16191;49.548;8.658;2022-09-24T01:50:21;4.65;;;2.60;;
29120;SDS011;16191;49.548;8.658;2022-09-24T01:53:33;8.02;;;2.92;;
29120;SDS011;16191;49.548;8.658;2022-09-24T01:55:52;8.75;;;2.90;;
29120;SDS011;16191;49.548;8.658;2022-09-24T01:58:32;9.23;;;3.35;;
29120;SDS011;16191;49.548;8.658;2022-09-24T02:01:25;5.13;;;2.95;;
29120;SDS011;16191;49.548;8.658;2022-09-24T02:03:59;5.22;;;2.97;;
29120;SDS011;16191;49.548;8.658;2022-09-24T02:06:33;9.75;;;2.55;;
29120;SDS011;16191;49.548;8.658;2022-09-24T02:09:05;4.75;;;2.75;;
29120;SDS011;16191;49.548;8.658;2022-09-24T02:11:32;4.82;;;2.70;;
29120;SDS011;16191;49.548;8.658;2022-09-24T02:14:08;4.88;;;2.90;;
29120;SDS011;16191;49.548;8.658;2022-09-24T02:16:43;8.13;;;2.70;;
29120;SDS011;16191;49.548;8.658;2022-09-24T02:19:13;5.85;;;2.80;;
29120;SDS011;16191;49.548;8.658;2022-09-24T02:21:43;4.15;;;2.63;;
29120;SDS011;16191;49.548;8.658;2022-09-24T02:27:19;13.18;;;3.47;;
29120;SDS011;16191;49.548;8.658;2022-09-24T02:29:47;4.97;;;3.10;;
29120;SDS011;16191;49.548;8.658;2022-09-24T02:32:15;16.20;;;3.28;;
29120;SDS011;16191;49.548;8.658;2022-09-24T02:34:46;7.25;;;3.20;;
29120;SDS011;16191;49.548;8.658;2022-09-24T02:37:17;4.95;;;2.38;;
29120;SDS011;16191;49.548;8.658;2022-09-24T02:39:45;8.13;;;2.58;;
29120;SDS011;16191;49.548;8.658;2022-09-24T02:42:12;8.15;;;2.75;;
29120;SDS011;16191;49.548;8.658;2022-09-24T02:44:40;6.43;;;2.45;;
29120;SDS011;16191;49.548;8.658;2022-09-24T02:47:07;4.82;;;2.50;;
29120;SDS011;16191;49.548;8.658;2022-09-24T02:49:34;7.43;;;2.30;;
29120;SDS011;16191;49.548;8.658;2022-09-24T02:52:01;7.78;;;2.47;;
29120;SDS011;16191;49.548;8.658;2022-09-24T02:54:28;3.83;;;2.45;;
29120;SDS011;16191;49.548;8.658;2022-09-24T02:56:54;4.28;;;2.55;;
29120;SDS011;16191;49.548;8.658;2022-09-24T02:59:21;5.68;;;2.70;;
29120;SDS011;16191;49.548;8.658;2022-09-24T03:01:48;8.38;;;3.00;;
29120;SDS011;16191;49.548;8.658;2022-09-24T03:04:15;10.60;;;2.60;;
29120;SDS011;16191;49.548;8.658;2022-09-24T03:06:42;5.38;;;2.80;;
29120;SDS011;16191;49.548;8.658;2022-09-24T03:09:12;7.05;;;2.80;;
29120;SDS011;16191;49.548;8.658;2022-09-24T03:11:38;3.10;;;2.60;;
29120;SDS011;16191;49.548;8.658;2022-09-24T03:14:05;10.02;;;2.90;;
29120;SDS011;16191;49.548;8.658;2022-09-24T03:16:32;5.95;;;2.38;;
29120;SDS011;16191;49.548;8.658;2022-09-24T03:18:59;4.00;;;2.60;;
29120;SDS011;16191;49.548;8.658;2022-09-24T03:21:25;9.57;;;2.97;;
29120;SDS011;16191;49.548;8.658;2022-09-24T03:23:52;5.50;;;2.75;;
29120;SDS011;16191;49.548;8.658;2022-09-24T03:26:19;5.60;;;3.00;;
29120;SDS011;16191;49.548;8.658;2022-09-24T03:28:45;6.25;;;2.80;;
29120;SDS011;16191;49.548;8.658;2022-09-24T03:31:12;12.18;;;3.03;;
29120;SDS011;16191;49.548;8.658;2022-09-24T03:33:41;9.63;;;2.72;;
29120;SDS011;16191;49.548;8.658;2022-09-24T03:36:14;5.50;;;2.80;;
29120;SDS011;16191;49.548;8.658;2022-09-24T03:38:42;4.57;;;2.60;;
29120;SDS011;16191;49.548;8.658;2022-09-24T03:41:11;7.03;;;2.70;;
29120;SDS011;16191;49.548;8.658;2022-09-24T03:43:38;10.35;;;2.83;;
29120;SDS011;16191;49.548;8.658;2022-09-24T03:46:05;6.43;;;2.83;;
29120;SDS011;16191;49.548;8.658;2022-09-24T03:48:35;9.45;;;3.10;;
29120;SDS011;16191;49.548;8.658;2022-09-24T03:53:37;4.93;;;2.88;;
29120;SDS011;16191;49.548;8.658;2022-09-24T03:56:04;7.07;;;3.00;;
29120;SDS011;16191;49.548;8.658;2022-09-24T03:58:33;7.55;;;2.90;;
29120;SDS011;16191;49.548;8.658;2022-09-24T04:01:04;5.13;;;3.38;;
29120;SDS011;16191;49.548;8.658;2022-09-24T04:03:32;4.15;;;2.67;;
29120;SDS011;16191;49.548;8.658;2022-09-24T04:05:59;8.90;;;2.85;;
29120;SDS011;16191;49.548;8.658;2022-09-24T04:08:25;8.73;;;3.13;;
29120;SDS011;16191;49.548;8.658;2022-09-24T04:10:52;4.97;;;2.53;;
29120;SDS011;16191;49.548;8.658;2022-09-24T04:13:20;5.70;;;3.25;;
29120;SDS011;16191;49.548;8.658;2022-09-24T04:15:47;8.18;;;3.15;;
29120;SDS011;16191;49.548;8.658;2022-09-24T04:18:16;8.88;;;3.28;;
29120;SDS011;16191;49.548;8.658;2022-09-24T04:20:44;5.20;;;2.85;;
29120;SDS011;16191;49.548;8.658;2022-09-24T04:23:12;7.32;;;3.22;;
29120;SDS011;16191;49.548;8.658;2022-09-24T04:25:39;8.25;;;2.83;;
29120;SDS011;16191;49.548;8.658;2022-09-24T04:28:07;6.75;;;3.05;;
29120;SDS011;16191;49.548;8.658;2022-09-24T04:30:35;5.75;;;3.10;;
29120;SDS011;16191;49.548;8.658;2022-09-24T04:33:03;3.75;;;3.13;;
29120;SDS011;16191;49.548;8.658;2022-09-24T04:35:31;5.18;;;3.20;;
29120;SDS011;16191;49.548;8.658;2022-09-24T04:38:01;5.03;;;2.80;;
29120;SDS011;16191;49.548;8.658;2022-09-24T04:40:29;6.90;;;3.13;;
29120;SDS011;16191;49.548;8.658;2022-09-24T04:42:56;8.32;;;3.15;;
29120;SDS011;16191;49.548;8.658;2022-09-24T04:45:23;5.82;;;3.00;;
29120;SDS011;16191;49.548;8.658;2022-09-24T04:47:50;8.88;;;3.20;;
29120;SDS011;16191;49.548;8.658;2022-09-24T04:50:21;12.15;;;3.40;;
29120;SDS011;16191;49.548;8.658;2022-09-24T04:52:57;5.63;;;2.80;;
29120;SDS011;16191;49.548;8.658;2022-09-24T04:55:25;4.82;;;3.05;;
29120;SDS011;16191;49.548;8.658;2022-09-24T04:57:56;5.30;;;2.65;;
29120;SDS011;16191;49.548;8.658;2022-09-24T05:00:24;4.88;;;3.25;;
29120;SDS011;16191;49.548;8.658;2022-09-24T05:02:57;8.00;;;2.90;;
29120;SDS011;16191;49.548;8.658;2022-09-24T05:05:25;4.07;;;2.63;;
29120;SDS011;16191;49.548;8.658;2022-09-24T05:07:52;10.00;;;3.05;;
29120;SDS011;16191;49.548;8.658;2022-09-24T05:10:22;4.50;;;2.80;;
29120;SDS011;16191;49.548;8.658;2022-09-24T05:12:49;4.90;;;2.75;;
29120;SDS011;16191;49.548;8.658;2022-09-24T05:15:16;6.75;;;2.90;;
29120;SDS011;16191;49.548;8.658;2022-09-24T05:17:45;5.65;;;3.30;;
29120;SDS011;16191;49.548;8.658;2022-09-24T05:20:12;6.60;;;3.00;;
29120;SDS011;16191;49.548;8.658;2022-09-24T05:22:43;6.47;;;3.00;;
29120;SDS011;16191;49.548;8.658;2022-09-24T05:25:12;9.80;;;2.78;;
29120;SDS011;16191;49.548;8.658;2022-09-24T05:27:50;5.90;;;2.90;;
29120;SDS011;16191;49.548;8.658;2022-09-24T05:30:19;6.00;;;2.92;;
29120;SDS011;16191;49.548;8.658;2022-09-24T05:32:50;5.70;;;2.80;;
29120;SDS011;16191;49.548;8.658;2022-09-24T05:35:21;8.82;;;2.88;;
29120;SDS011;16191;49.548;8.658;2022-09-24T05:37:49;9.43;;;3.13;;
29120;SDS011;16191;49.548;8.658;2022-09-24T05:40:19;5.85;;;2.88;;
29120;SDS011;16191;49.548;8.658;2022-09-24T05:43:05;4.40;;;2.90;;
29120;SDS011;16191;49.548;8.658;2022-09-24T05:45:32;5.55;;;3.38;;
29120;SDS011;16191;49.548;8.658;2022-09-24T05:47:58;5.85;;;2.75;;
29120;SDS011;16191;49.548;8.658;2022-09-24T05:50:25;4.70;;;2.85;;
29120;SDS011;16191;49.548;8.658;2022-09-24T05:52:52;6.68;;;2.72;;
29120;SDS011;16191;49.548;8.658;2022-09-24T05:55:19;8.90;;;3.25;;
29120;SDS011;16191;49.548;8.658;2022-09-24T05:57:45;8.32;;;2.92;;
29120;SDS011;16191;49.548;8.658;2022-09-24T06:00:12;7.43;;;2.85;;
29120;SDS011;16191;49.548;8.658;2022-09-24T06:02:38;8.07;;;3.03;;
29120;SDS011;16191;49.548;8.658;2022-09-24T06:05:05;8.05;;;3.13;;
29120;SDS011;16191;49.548;8.658;2022-09-24T06:07:32;7.38;;;2.80;;
29120;SDS011;16191;49.548;8.658;2022-09-24T06:09:59;7.53;;;2.70;;
29120;SDS011;16191;49.548;8.658;2022-09-24T06:12:26;4.57;;;2.83;;
29120;SDS011;16191;49.548;8.658;2022-09-24T06:14:53;8.40;;;3.13;;
29120;SDS011;16191;49.548;8.658;2022-09-24T06:17:22;6.32;;;2.70;;
29120;SDS011;16191;49.548;8.658;2022-09-24T06:19:49;9.18;;;4.22;;
29120;SDS011;16191;49.548;8.658;2022-09-24T06:22:15;6.45;;;4.25;;
29120;SDS011;16191;49.548;8.658;2022-09-24T06:24:42;7.40;;;4.38;;
29120;SDS011;16191;49.548;8.658;2022-09-24T06:27:09;11.75;;;4.50;;
29120;SDS011;16191;49.548;8.658;2022-09-24T06:29:36;6.00;;;4.15;;
29120;SDS011;16191;49.548;8.658;2022-09-24T06:32:03;5.38;;;3.85;;
29120;SDS011;16191;49.548;8.658;2022-09-24T06:34:30;5.38;;;3.10;;
29120;SDS011;16191;49.548;8.658;2022-09-24T06:36:57;8.23;;;3.30;;
29120;SDS011;16191;49.548;8.658;2022-09-24T06:39:23;6.60;;;3.00;;
29120;SDS011;16191;49.548;8.658;2022-09-24T06:41:51;5.57;;;2.80;;
29120;SDS011;16191;49.548;8.658;2022-09-24T06:44:20;5.55;;;3.50;;
29120;SDS011;16191;49.548;8.658;2022-09-24T06:46:47;5.47;;;2.97;;
29120;SDS011;16191;49.548;8.658;2022-09-24T06:49:13;5.32;;;2.97;;
29120;SDS011;16191;49.548;8.658;2022-09-24T06:51:40;8.32;;;3.35;;
29120;SDS011;16191;49.548;8.658;2022-09-24T06:54:07;5.07;;;2.90;;
29120;SDS011;16191;49.548;8.658;2022-09-24T06:56:33;5.32;;;2.65;;
29120;SDS011;16191;49.548;8.658;2022-09-24T06:58:59;4.38;;;2.60;;
29120;SDS011;16191;49.548;8.658;2022-09-24T07:01:26;9.00;;;3.55;;
29120;SDS011;16191;49.548;8.658;2022-09-24T07:03:53;6.68;;;3.72;;
29120;SDS011;16191;49.548;8.658;2022-09-24T07:06:19;6.93;;;3.80;;
29120;SDS011;16191;49.548;8.658;2022-09-24T07:08:49;7.15;;;4.10;;
29120;SDS011;16191;49.548;8.658;2022-09-24T07:11:16;6.28;;;4.10;;
29120;SDS011;16191;49.548;8.658;2022-09-24T07:13:43;8.25;;;4.10;;
29120;SDS011;16191;49.548;8.658;2022-09-24T07:16:09;5.15;;;3.78;;
29120;SDS011;16191;49.548;8.658;2022-09-24T07:18:36;8.80;;;3.75;;
29120;SDS011;16191;49.548;8.658;2022-09-24T07:21:03;8.38;;;4.15;;
29120;SDS011;16191;49.548;8.658;2022-09-24T07:23:30;8.20;;;5.10;;
29120;SDS011;16191;49.548;8.658;2022-09-24T07:25:56;11.40;;;4.57;;
29120;SDS011;16191;49.548;8.658;2022-09-24T07:28:23;6.72;;;4.10;;
29120;SDS011;16191;49.548;8.658;2022-09-24T07:30:57;6.68;;;4.00;;
29120;SDS011;16191;49.548;8.658;2022-09-24T07:33:25;8.40;;;3.65;;
29120;SDS011;16191;49.548;8.658;2022-09-24T07:35:51;7.50;;;4.15;;
29120;SDS011;16191;49.548;8.658;2022-09-24T07:38:18;9.02;;;4.20;;
29120;SDS011;16191;49.548;8.658;2022-09-24T07:40:45;8.15;;;4.45;;
29120;SDS011;16191;49.548;8.658;2022-09-24T07:43:11;11.18;;;5.05;;
29120;SDS011;16191;49.548;8.658;2022-09-24T07:45:40;11.27;;;4.40;;
29120;SDS011;16191;49.548;8.658;2022-09-24T07:48:08;6.20;;;4.57;;
29120;SDS011;16191;49.548;8.658;2022-09-24T07:50:39;8.77;;;5.00;;
29120;SDS011;16191;49.548;8.658;2022-09-24T07:53:07;11.13;;;4.10;;
29120;SDS011;16191;49.548;8.658;2022-09-24T07:55:36;10.90;;;4.17;;
29120;SDS011;16191;49.548;8.658;2022-09-24T07:58:06;5.07;;;4.38;;
29120;SDS011;16191;49.548;8.658;2022-09-24T08:00:36;7.88;;;3.92;;
29120;SDS011;16191;49.548;8.658;2022-09-24T08:03:03;13.18;;;4.38;;
29120;SDS011;16191;49.548;8.658;2022-09-24T08:05:30;10.88;;;3.60;;
29120;SDS011;16191;49.548;8.658;2022-09-24T08:07:58;15.02;;;4.55;;
29120;SDS011;16191;49.548;8.658;2022-09-24T08:10:25;9.55;;;3.50;;
29120;SDS011;16191;49.548;8.658;2022-09-24T08:12:53;7.38;;;4.55;;
29120;SDS011;16191;49.548;8.658;2022-09-24T08:15:22;7.53;;;3.83;;
29120;SDS011;16191;49.548;8.658;2022-09-24T08:17:49;13.40;;;4.85;;
29120;SDS011;16191;49.548;8.658;2022-09-24T08:20:16;11.80;;;4.35;;
29120;SDS011;16191;49.548;8.658;2022-09-24T08:22:42;7.03;;;4.95;;
29120;SDS011;16191;49.548;8.658;2022-09-24T08:25:09;12.95;;;4.93;;
29120;SDS011;16191;49.548;8.658;2022-09-24T08:27:36;12.38;;;4.85;;
29120;SDS011;16191;49.548;8.658;2022-09-24T08:30:03;8.30;;;4.38;;
29120;SDS011;16191;49.548;8.658;2022-09-24T08:32:30;9.95;;;5.55;;
29120;SDS011;16191;49.548;8.658;2022-09-24T08:34:57;8.65;;;5.68;;
29120;SDS011;16191;49.548;8.658;2022-09-24T08:37:25;9.30;;;5.60;;
29120;SDS011;16191;49.548;8.658;2022-09-24T08:39:54;8.27;;;5.55;;
29120;SDS011;16191;49.548;8.658;2022-09-24T08:42:24;11.30;;;5.43;;
29120;SDS011;16191;49.548;8.658;2022-09-24T08:45:00;12.05;;;5.80;;
29120;SDS011;16191;49.548;8.658;2022-09-24T08:47:54;11.68;;;5.10;;
29120;SDS011;16191;49.548;8.658;2022-09-24T08:50:29;8.88;;;5.45;;
29120;SDS011;16191;49.548;8.658;2022-09-24T08:53:05;13.38;;;5.47;;
29120;SDS011;16191;49.548;8.658;2022-09-24T08:55:47;12.07;;;5.72;;
29120;SDS011;16191;49.548;8.658;2022-09-24T09:00:52;8.55;;;5.15;;
29120;SDS011;16191;49.548;8.658;2022-09-24T09:03:29;7.20;;;4.97;;
29120;SDS011;16191;49.548;8.658;2022-09-24T09:06:02;11.52;;;5.68;;
29120;SDS011;16191;49.548;8.658;2022-09-24T09:11:31;9.68;;;5.22;;
29120;SDS011;16191;49.548;8.658;2022-09-24T09:14:02;9.27;;;5.93;;
29120;SDS011;16191;49.548;8.658;2022-09-24T09:19:25;13.77;;;6.57;;
29120;SDS011;16191;49.548;8.658;2022-09-24T09:21:58;8.57;;;6.72;;
29120;SDS011;16191;49.548;8.658;2022-09-24T09:24:47;12.25;;;7.22;;
29120;SDS011;16191;49.548;8.658;2022-09-24T09:27:15;10.80;;;7.13;;
29120;SDS011;16191;49.548;8.658;2022-09-24T09:29:44;10.63;;;7.30;;
29120;SDS011;16191;49.548;8.658;2022-09-24T09:37:48;20.35;;;7.78;;
29120;SDS011;16191;49.548;8.658;2022-09-24T09:43:08;11.05;;;7.32;;
29120;SDS011;16191;49.548;8.658;2022-09-24T09:45:40;11.85;;;7.50;;
29120;SDS011;16191;49.548;8.658;2022-09-24T09:48:13;13.02;;;7.93;;
29120;SDS011;16191;49.548;8.658;2022-09-24T09:50:52;10.38;;;7.50;;
29120;SDS011;16191;49.548;8.658;2022-09-24T09:53:25;10.45;;;7.65;;
29120;SDS011;16191;49.548;8.658;2022-09-24T09:55:54;16.17;;;8.07;;
29120;SDS011;16191;49.548;8.658;2022-09-24T09:58:29;8.70;;;7.68;;
29120;SDS011;16191;49.548;8.658;2022-09-24T10:01:11;19.48;;;8.88;;
29120;SDS011;16191;49.548;8.658;2022-09-24T10:06:22;12.43;;;7.93;;
29120;SDS011;16191;49.548;8.658;2022-09-24T10:11:39;15.20;;;6.45;;
29120;SDS011;16191;49.548;8.658;2022-09-24T10:14:08;15.80;;;7.22;;
29120;SDS011;16191;49.548;8.658;2022-09-24T10:16:38;9.98;;;6.13;;
29120;SDS011;16191;49.548;8.658;2022-09-24T10:24:26;7.95;;;5.47;;
29120;SDS011;16191;49.548;8.658;2022-09-24T10:26:53;12.07;;;6.57;;
29120;SDS011;16191;49.548;8.658;2022-09-24T10:32:18;12.50;;;6.47;;
29120;SDS011;16191;49.548;8.658;2022-09-24T10:34:56;11.35;;;6.07;;
29120;SDS011;16191;49.548;8.658;2022-09-24T10:37:25;10.40;;;6.93;;
29120;SDS011;16191;49.548;8.658;2022-09-24T10:39:59;7.55;;;5.25;;
29120;SDS011;16191;49.548;8.658;2022-09-24T10:42:29;10.80;;;5.57;;
29120;SDS011;16191;49.548;8.658;2022-09-24T10:44:59;7.22;;;4.95;;
29120;SDS011;16191;49.548;8.658;2022-09-24T10:50:27;9.77;;;4.97;;
29120;SDS011;16191;49.548;8.658;2022-09-24T10:58:47;12.13;;;5.38;;
29120;SDS011;16191;49.548;8.658;2022-09-24T11:01:42;18.60;;;6.07;;
29120;SDS011;16191;49.548;8.658;2022-09-24T11:04:25;8.88;;;5.75;;
29120;SDS011;16191;49.548;8.658;2022-09-24T11:07:02;11.15;;;5.28;;
29120;SDS011;16191;49.548;8.658;2022-09-24T11:09:38;8.80;;;4.43;;
29120;SDS011;16191;49.548;8.658;2022-09-24T11:12:23;8.45;;;5.15;;
29120;SDS011;16191;49.548;8.658;2022-09-24T11:15:02;9.40;;;4.60;;
29120;SDS011;16191;49.548;8.658;2022-09-24T11:17:48;6.85;;;4.10;;
29120;SDS011;16191;49.548;8.658;2022-09-24T11:23:15;8.48;;;4.10;;
29120;SDS011;16191;49.548;8.658;2022-09-24T11:28:44;8.90;;;4.50;;
29120;SDS011;16191;49.548;8.658;2022-09-24T11:31:32;7.85;;;4.10;;
29120;SDS011;16191;49.548;8.658;2022-09-24T11:34:10;5.05;;;3.20;;
29120;SDS011;16191;49.548;8.658;2022-09-24T11:48:09;6.47;;;3.33;;
29120;SDS011;16191;49.548;8.658;2022-09-24T11:53:33;7.53;;;3.70;;
29120;SDS011;16191;49.548;8.658;2022-09-24T11:56:42;5.93;;;3.22;;
29120;SDS011;16191;49.548;8.658;2022-09-24T12:01:50;7.60;;;3.05;;
29120;SDS011;16191;49.548;8.658;2022-09-24T12:05:08;7.10;;;3.80;;
29120;SDS011;16191;49.548;8.658;2022-09-24T12:07:23;9.18;;;4.00;;
29120;SDS011;16191;49.548;8.658;2022-09-24T12:10:22;9.77;;;3.83;;
29120;SDS011;16191;49.548;8.658;2022-09-24T12:13:12;6.57;;;4.05;;
29120;SDS011;16191;49.548;8.658;2022-09-24T12:15:59;6.03;;;3.53;;
29120;SDS011;16191;49.548;8.658;2022-09-24T12:18:31;6.38;;;3.42;;
29120;SDS011;16191;49.548;8.658;2022-09-24T12:21:48;6.55;;;3.80;;
29120;SDS011;16191;49.548;8.658;2022-09-24T12:24:03;7.55;;;3.50;;
29120;SDS011;16191;49.548;8.658;2022-09-24T12:26:39;5.57;;;3.40;;
29120;SDS011;16191;49.548;8.658;2022-09-24T12:29:16;9.38;;;3.80;;
29120;SDS011;16191;49.548;8.658;2022-09-24T12:37:54;9.30;;;3.70;;
29120;SDS011;16191;49.548;8.658;2022-09-24T12:43:23;5.53;;;3.38;;
29120;SDS011;16191;49.548;8.658;2022-09-24T12:45:57;4.25;;;3.22;;
29120;SDS011;16191;49.548;8.658;2022-09-24T12:48:27;9.23;;;3.17;;
29120;SDS011;16191;49.548;8.658;2022-09-24T12:50:59;8.43;;;2.80;;
29120;SDS011;16191;49.548;8.658;2022-09-24T12:53:31;5.35;;;2.72;;
29120;SDS011;16191;49.548;8.658;2022-09-24T12:56:00;6.75;;;2.88;;
29120;SDS011;16191;49.548;8.658;2022-09-24T12:58:35;8.30;;;3.15;;
29120;SDS011;16191;49.548;8.658;2022-09-24T13:01:10;8.50;;;2.95;;
29120;SDS011;16191;49.548;8.658;2022-09-24T13:03:40;6.20;;;2.58;;
29120;SDS011;16191;49.548;8.658;2022-09-24T13:06:32;6.90;;;2.53;;
29120;SDS011;16191;49.548;8.658;2022-09-24T13:09:02;8.30;;;3.00;;
29120;SDS011;16191;49.548;8.658;2022-09-24T13:12:01;7.70;;;3.10;;
29120;SDS011;16191;49.548;8.658;2022-09-24T13:14:41;7.43;;;3.03;;
29120;SDS011;16191;49.548;8.658;2022-09-24T13:17:14;9.20;;;2.85;;
29120;SDS011;16191;49.548;8.658;2022-09-24T13:19:42;4.90;;;2.72;;
29120;SDS011;16191;49.548;8.658;2022-09-24T13:22:24;5.40;;;2.50;;
29120;SDS011;16191;49.548;8.658;2022-09-24T13:35:46;5.43;;;3.30;;
29120;SDS011;16191;49.548;8.658;2022-09-24T13:38:24;4.35;;;2.83;;
29120;SDS011;16191;49.548;8.658;2022-09-24T13:44:02;5.97;;;2.85;;
29120;SDS011;16191;49.548;8.658;2022-09-24T13:46:32;5.80;;;2.95;;
29120;SDS011;16191;49.548;8.658;2022-09-24T13:49:02;5.22;;;2.90;;
29120;SDS011;16191;49.548;8.658;2022-09-24T13:51:36;7.05;;;2.60;;
29120;SDS011;16191;49.548;8.658;2022-09-24T13:57:05;6.32;;;2.55;;
29120;SDS011;16191;49.548;8.658;2022-09-24T13:59:37;7.35;;;3.05;;
29120;SDS011;16191;49.548;8.658;2022-09-24T14:02:17;7.70;;;2.90;;
29120;SDS011;16191;49.548;8.658;2022-09-24T14:04:52;11.93;;;3.58;;
29120;SDS011;16191;49.548;8.658;2022-09-24T14:07:21;6.18;;;2.80;;
29120;SDS011;16191;49.548;8.658;2022-09-24T14:09:48;5.53;;;2.60;;
29120;SDS011;16191;49.548;8.658;2022-09-24T14:12:17;4.85;;;2.75;;
29120;SDS011;16191;49.548;8.658;2022-09-24T14:14:52;8.00;;;2.72;;
29120;SDS011;16191;49.548;8.658;2022-09-24T14:17:20;4.15;;;2.40;;
29120;SDS011;16191;49.548;8.658;2022-09-24T14:19:46;7.13;;;2.50;;
29120;SDS011;16191;49.548;8.658;2022-09-24T14:22:19;6.55;;;2.60;;
29120;SDS011;16191;49.548;8.658;2022-09-24T14:27:25;5.72;;;2.53;;
29120;SDS011;16191;49.548;8.658;2022-09-24T14:29:57;5.28;;;2.85;;
29120;SDS011;16191;49.548;8.658;2022-09-24T14:32:28;5.63;;;2.70;;
29120;SDS011;16191;49.548;8.658;2022-09-24T14:34:58;5.70;;;2.80;;
29120;SDS011;16191;49.548;8.658;2022-09-24T14:37:35;9.52;;;3.17;;
29120;SDS011;16191;49.548;8.658;2022-09-24T14:40:14;6.22;;;2.75;;
29120;SDS011;16191;49.548;8.658;2022-09-24T14:42:44;5.90;;;2.50;;
29120;SDS011;16191;49.548;8.658;2022-09-24T14:45:18;4.82;;;2.75;;
29120;SDS011;16191;49.548;8.658;2022-09-24T14:47:47;6.97;;;3.50;;
29120;SDS011;16191;49.548;8.658;2022-09-24T14:50:31;4.38;;;2.83;;
29120;SDS011;16191;49.548;8.658;2022-09-24T14:53:10;7.70;;;3.05;;
29120;SDS011;16191;49.548;8.658;2022-09-24T14:55:49;6.18;;;3.00;;
29120;SDS011;16191;49.548;8.658;2022-09-24T14:58:31;6.50;;;2.95;;
29120;SDS011;16191;49.548;8.658;2022-09-24T15:01:09;6.70;;;2.88;;
29120;SDS011;16191;49.548;8.658;2022-09-24T15:03:40;9.00;;;3.03;;
29120;SDS011;16191;49.548;8.658;2022-09-24T15:09:02;2.20;;;2.00;;
29120;SDS011;16191;49.548;8.658;2022-09-24T15:11:30;9.02;;;3.20;;
29120;SDS011;16191;49.548;8.658;2022-09-24T15:14:21;7.35;;;2.65;;
29120;SDS011;16191;49.548;8.658;2022-09-24T15:16:53;10.35;;;3.20;;
29120;SDS011;16191;49.548;8.658;2022-09-24T15:19:21;8.00;;;2.65;;
29120;SDS011;16191;49.548;8.658;2022-09-24T15:24:18;4.70;;;2.45;;
29120;SDS011;16191;49.548;8.658;2022-09-24T15:26:46;5.55;;;2.55;;
29120;SDS011;16191;49.548;8.658;2022-09-24T15:29:19;5.72;;;2.63;;
29120;SDS011;16191;49.548;8.658;2022-09-24T15:31:49;6.00;;;2.67;;
29120;SDS011;16191;49.548;8.658;2022-09-24T15:34:17;5.68;;;2.58;;
29120;SDS011;16191;49.548;8.658;2022-09-24T15:36:46;3.83;;;2.30;;
29120;SDS011;16191;49.548;8.658;2022-09-24T15:39:14;5.55;;;2.70;;
29120;SDS011;16191;49.548;8.658;2022-09-24T15:41:44;8.23;;;2.63;;
29120;SDS011;16191;49.548;8.658;2022-09-24T15:44:16;5.38;;;2.50;;
29120;SDS011;16191;49.548;8.658;2022-09-24T15:46:45;4.00;;;2.72;;
29120;SDS011;16191;49.548;8.658;2022-09-24T15:49:13;4.75;;;3.03;;
29120;SDS011;16191;49.548;8.658;2022-09-24T15:51:41;7.97;;;3.03;;
29120;SDS011;16191;49.548;8.658;2022-09-24T15:54:08;7.80;;;2.80;;
29120;SDS011;16191;49.548;8.658;2022-09-24T15:56:34;5.57;;;2.80;;
29120;SDS011;16191;49.548;8.658;2022-09-24T15:59:04;6.38;;;2.97;;
29120;SDS011;16191;49.548;8.658;2022-09-24T16:01:37;6.97;;;2.80;;
29120;SDS011;16191;49.548;8.658;2022-09-24T16:04:04;6.50;;;3.03;;
29120;SDS011;16191;49.548;8.658;2022-09-24T16:06:31;8.13;;;3.20;;
29120;SDS011;16191;49.548;8.658;2022-09-24T16:08:57;9.70;;;3.08;;
29120;SDS011;16191;49.548;8.658;2022-09-24T16:11:24;6.28;;;2.97;;
29120;SDS011;16191;49.548;8.658;2022-09-24T16:13:52;5.13;;;2.88;;
29120;SDS011;16191;49.548;8.658;2022-09-24T16:16:19;7.40;;;2.88;;
29120;SDS011;16191;49.548;8.658;2022-09-24T16:18:46;7.47;;;3.10;;
29120;SDS011;16191;49.548;8.658;2022-09-24T16:21:13;4.90;;;2.63;;
29120;SDS011;16191;49.548;8.658;2022-09-24T16:23:40;6.43;;;3.13;;
29120;SDS011;16191;49.548;8.658;2022-09-24T16:26:06;5.32;;;3.10;;
29120;SDS011;16191;49.548;8.658;2022-09-24T16:28:33;7.57;;;3.10;;
29120;SDS011;16191;49.548;8.658;2022-09-24T16:31:05;5.50;;;3.00;;
29120;SDS011;16191;49.548;8.658;2022-09-24T16:33:38;5.88;;;3.55;;
29120;SDS011;16191;49.548;8.658;2022-09-24T16:36:05;6.75;;;3.30;;
29120;SDS011;16191;49.548;8.658;2022-09-24T16:38:34;6.70;;;3.08;;
29120;SDS011;16191;49.548;8.658;2022-09-24T16:41:01;6.30;;;3.33;;
29120;SDS011;16191;49.548;8.658;2022-09-24T16:43:28;8.02;;;3.20;;
29120;SDS011;16191;49.548;8.658;2022-09-24T16:45:59;7.90;;;3.40;;
29120;SDS011;16191;49.548;8.658;2022-09-24T16:48:27;4.47;;;3.20;;
29120;SDS011;16191;49.548;8.658;2022-09-24T16:50:53;6.90;;;3.15;;
29120;SDS011;16191;49.548;8.658;2022-09-24T16:53:21;6.82;;;3.47;;
29120;SDS011;16191;49.548;8.658;2022-09-24T16:55:47;8.43;;;3.58;;
29120;SDS011;16191;49.548;8.658;2022-09-24T16:58:14;17.83;;;6.15;;
29120;SDS011;16191;49.548;8.658;2022-09-24T17:00:41;11.23;;;4.90;;
29120;SDS011;16191;49.548;8.658;2022-09-24T17:03:09;16.15;;;5.55;;